Aviation Digital Data Service (ADDS)

Output produced by METARs form (0638 UTC 24 March 2019)
found at http://www.aviationweather.gov/metar/data/
 
KACY 240554Z 26008KT 10SM CLR 04/M08 A3021 RMK AO2 SLP231 T00441078 10083 20039 51016
KACY 240526Z 2406/2506 26006KT P6SM SKC 
     FM241600 22010G18KT P6SM SCT250 
     FM242300 20006KT P6SM BKN250 
     FM250400 VRB03KT P6SM BKN100
       
KBLM 240556Z AUTO 28008KT 10SM CLR 04/M12 A3018 RMK AO2 SLP227 T00441117 10078 20033 53010
KCDW 240553Z AUTO 26003KT 10SM CLR 02/M12 A3017 RMK AO2 SLP223 T00221117 10061 20011 53010
KLDJ 240635Z AUTO 30007KT 10SM CLR 03/M11 A3019 RMK AO2 T00301114
KMIV 240554Z AUTO 26003KT 10SM CLR M01/M06 A3022 RMK AO2 SLP231 T10111056 10078 21022 50008
KMIV 240526Z 2406/2506 VRB03KT P6SM SKC 
     FM241300 27006KT P6SM SKC 
     FM241600 23008G16KT P6SM SCT250 
     FM242300 VRB03KT P6SM BKN250 
     FM250400 VRB03KT P6SM BKN100
       
KMMU 240615Z AUTO 00000KT 10SM CLR 02/M11 A3017 RMK AO2
KVAY 240554Z AUTO 27004KT 10SM CLR 06/M11 A3020 RMK AO2 SLP225 T00561111 10094 20056 51010
KEWR 240551Z 28007KT 10SM CLR 04/M12 A3017 RMK AO2 SLP216 T00391122 10072 20039 53010
KEWR 240539Z 2406/2512 29007KT P6SM SKC 
     FM241400 26008KT P6SM SKC 
     FM241700 24012G20KT P6SM BKN200 
     FM242200 24012KT P6SM SCT120 BKN150 
     FM250200 23007KT P6SM BKN100 
     FM250900 27004KT P6SM OVC080 
     FM251100 32005KT P6SM OVC060
       
KFWN 240553Z AUTO 26005KT 10SM CLR 02/M11 A3016 RMK AO2 SLP215 T00221106 10050 20022 53011
KTEB 240551Z 29007KT 10SM CLR 03/M11 A3016 RMK AO2 SLP211 T00331111 10067 20033 53008 $
KTEB 240539Z 2406/2512 29005KT P6SM SKC 
     FM241400 27007KT P6SM SKC 
     FM241700 24011G19KT P6SM BKN200 
     FM242200 23011KT P6SM SCT120 BKN150 
     FM250100 22006KT P6SM BKN100 
     FM250900 27003KT P6SM OVC080 
     FM251100 32004KT P6SM OVC070
       
KMJX 240556Z AUTO 27006KT 10SM CLR 00/M09 A3020 RMK AO2 SLP233 T00001089 10078 21028 53014 FZRANO
KTTN 240553Z AUTO 00000KT 10SM CLR 04/M11 A3018 RMK AO2 SLP216 T00391111 10083 20022 52010
KTTN 240526Z 2406/2506 VRB03KT P6SM SKC 
     FM241300 27006KT P6SM SKC 
     FM241600 25008G16KT P6SM SCT250 
     FM242300 24004KT P6SM BKN250 
     FM250400 VRB03KT P6SM BKN100
       
KWWD 240555Z AUTO 29008KT 10SM CLR 07/M02 A3023 RMK AO2 SLP240 T00671022 10083 20067 51010
KWRI 240456Z AUTO 26006KT 10SM CLR 03/M10 A3015 RMK AO2 SLP210 T00321105 401050014
TAF KWRI 240200Z 2402/2508 29009KT 9999 SKC WS020/30035KT QNH3012INS 
     BECMG 2412/2413 25012G18KT 9999 FEW200 QNH3005INS 
     BECMG 2421/2422 24009KT 9999 BKN080 OVC170 QNH3002INS 
     BECMG 2505/2506 24006KT 9999 BKN065 OVC120 QNH2999INS TX13/2421Z
TNM01/2412Z